Time;durP1;ratioP1;P1;durP2;ratioP2;P2;SDS_P1;SDS_P2;PMS_P1;PMS_P2;Temp;Humidity;BMP_temperature;BMP_pressure;BME280_temperature;BME280_humidity;BME280_pressure;Samples;Min_cycle;Max_cycle;Signal;HPM_P1;HPM_P2
2021/12/05 00:20:59;;;;;;;59.73;28.93;;;;;;;0.48;67.19;100163.39;125749;1099;104162;-82
2021/12/05 00:23:39;;;;;;;57.80;26.83;;;;;;;0.51;67.03;100163.61;126297;1099;104245;-81
2021/12/05 00:26:16;;;;;;;54.73;26.47;;;;;;;0.55;67.26;100165.63;126396;1098;102015;-81
2021/12/05 00:29:10;;;;;;;56.37;25.77;;;;;;;0.51;66.77;100158.45;126406;1099;104325;-80
2021/12/05 00:31:53;;;;;;;55.20;25.87;;;;;;;0.48;67.00;100156.57;126362;1099;104216;-81
2021/12/05 00:34:48;;;;;;;55.50;23.67;;;;;;;0.45;67.51;100156.35;126380;1099;104251;-81
2021/12/05 00:46:24;;;;;;;60.83;25.47;;;;;;;0.29;67.69;100150.88;126062;1099;108269;-80
2021/12/05 00:49:16;;;;;;;61.50;24.83;;;;;;;0.31;67.58;100164.78;126246;1099;104251;-81
2021/12/05 00:52:25;;;;;;;54.57;23.83;;;;;;;0.27;67.63;100163.67;126401;1099;104195;-80
2021/12/05 01:01:18;;;;;;;52.23;22.97;;;;;;;0.29;67.81;100161.20;125378;1099;104153;-80
2021/12/05 01:09:39;;;;;;;47.63;21.03;;;;;;;0.20;68.08;100158.86;125295;1102;104258;-81
2021/12/05 01:15:06;;;;;;;39.80;17.83;;;;;;;0.17;68.69;100156.97;125209;1102;104261;-81
2021/12/05 01:17:57;;;;;;;50.43;21.70;;;;;;;0.16;67.88;100154.28;125319;1102;104258;-81
2021/12/05 01:20:33;;;;;;;50.50;21.83;;;;;;;0.20;68.47;100147.65;125296;1101;104198;-82
2021/12/05 01:23:12;;;;;;;50.93;23.93;;;;;;;0.24;67.95;100150.55;125345;1102;104169;-82
2021/12/05 01:25:54;;;;;;;56.60;27.10;;;;;;;0.29;68.25;100156.92;125336;1102;102855;-82
2021/12/05 01:28:39;;;;;;;52.30;22.73;;;;;;;0.32;68.08;100159.73;125286;1102;104588;-81
2021/12/05 01:31:18;;;;;;;50.33;22.30;;;;;;;0.32;68.08;100166.59;125265;1102;104262;-81
2021/12/05 01:33:57;;;;;;;51.93;23.70;;;;;;;0.34;68.08;100165.00;125346;1099;104178;-80
2021/12/05 01:36:38;;;;;;;52.55;22.35;;;;;;;0.33;68.62;100164.11;126201;1099;104178;-81
2021/12/05 01:39:27;;;;;;;49.43;22.70;;;;;;;0.30;68.33;100174.22;126391;1099;104156;-82
2021/12/05 01:45:29;;;;;;;45.53;20.37;;;;;;;0.32;71.07;100167.47;125488;1099;104178;-81
2021/12/05 01:51:32;;;;;;;53.60;23.67;;;;;;;0.19;69.29;100151.92;125346;1102;104299;-82
2021/12/05 02:00:29;;;;;;;52.33;23.00;;;;;;;0.27;69.62;100140.45;126093;1099;105882;-80
2021/12/05 02:09:10;;;;;;;56.43;23.10;;;;;;;0.24;69.57;100136.77;126132;1099;118860;-80
2021/12/05 02:31:56;;;;;;;62.07;28.07;;;;;;;0.09;69.81;100095.28;125270;1102;104233;-81
2021/12/05 02:34:38;;;;;;;66.43;28.83;;;;;;;0.14;69.69;100091.33;125352;1101;104274;-81
2021/12/05 02:37:29;;;;;;;61.93;28.90;;;;;;;0.16;70.15;100098.41;125239;1102;104312;-81
2021/12/05 02:40:24;;;;;;;63.50;27.73;;;;;;;0.19;70.06;100113.22;125252;1099;108247;-80
2021/12/05 02:43:03;;;;;;;59.37;28.47;;;;;;;0.23;70.05;100111.73;125341;1099;104152;-81
2021/12/05 02:45:39;;;;;;;68.53;30.00;;;;;;;0.27;69.85;100112.06;125333;1099;104153;-82
2021/12/05 02:48:13;;;;;;;61.77;26.80;;;;;;;0.31;69.93;100123.48;125347;1100;104211;-80
2021/12/05 02:50:46;;;;;;;67.83;30.00;;;;;;;0.32;70.12;100125.29;125302;1102;104165;-81
2021/12/05 02:53:21;;;;;;;62.27;26.03;;;;;;;0.33;69.87;100120.23;125300;1099;104236;-81
2021/12/05 02:55:53;;;;;;;57.40;26.13;;;;;;;0.37;70.54;100118.75;126262;1099;104249;-81
2021/12/05 02:58:29;;;;;;;53.63;24.67;;;;;;;0.40;70.20;100123.25;126325;1096;104245;-81
2021/12/05 03:01:15;;;;;;;56.53;25.53;;;;;;;0.43;69.82;100123.46;126374;1099;104293;-81
2021/12/05 03:03:49;;;;;;;55.87;23.93;;;;;;;0.42;70.65;100103.59;126345;1099;104210;-81
2021/12/05 03:06:25;;;;;;;52.30;25.00;;;;;;;0.43;70.55;100097.65;126291;1099;104226;-81
2021/12/05 03:08:59;;;;;;;56.05;26.10;;;;;;;0.45;70.42;100094.39;126287;1099;104140;-82
2021/12/05 03:11:31;;;;;;;51.35;23.80;;;;;;;0.47;70.45;100089.34;126360;1098;104280;-82
2021/12/05 03:14:04;;;;;;;52.47;24.67;;;;;;;0.42;70.39;100088.10;126372;1099;104181;-82
2021/12/05 03:16:37;;;;;;;50.77;24.23;;;;;;;0.40;70.85;100084.53;126368;1099;104286;-81
2021/12/05 03:19:11;;;;;;;52.40;23.90;;;;;;;0.38;70.13;100080.95;126298;1099;104153;-82
2021/12/05 03:21:45;;;;;;;49.50;23.62;;;;;;;0.36;70.67;100088.59;126330;1099;104149;-80
2021/12/05 03:24:16;;;;;;;;;;;;;;;0.28;70.91;100098.37;126422;1099;104376;-80
2021/12/05 03:26:50;;;;;;;45.80;20.50;;;;;;;0.26;70.66;100099.94;126376;1099;104274;-80
2021/12/05 03:29:25;;;;;;;48.67;22.93;;;;;;;0.25;70.22;100102.41;126333;1099;104261;-81
2021/12/05 03:31:59;;;;;;;49.73;22.73;;;;;;;0.24;70.24;100103.22;126270;1100;104155;-80
2021/12/05 03:34:32;;;;;;;50.52;22.82;;;;;;;0.25;70.68;100103.33;126288;1099;104143;-80
2021/12/05 03:37:08;;;;;;;47.83;23.90;;;;;;;0.26;70.98;100105.09;126325;1098;101993;-81
2021/12/05 03:39:40;;;;;;;46.08;21.57;;;;;;;0.27;70.82;100095.69;126334;1099;104704;-81
2021/12/05 03:42:13;;;;;;;48.92;22.42;;;;;;;0.25;70.82;100098.16;126295;1099;104239;-81
2021/12/05 03:44:47;;;;;;;50.35;24.98;;;;;;;0.25;70.47;100098.16;126294;1099;104270;-82
2021/12/05 03:47:19;;;;;;;44.13;20.77;;;;;;;0.28;70.52;100098.37;126401;1099;104175;-81
2021/12/05 03:49:51;;;;;;;47.70;22.53;;;;;;;0.30;70.52;100099.38;126278;1099;104246;-81
2021/12/05 03:52:23;;;;;;;46.90;22.47;;;;;;;0.29;71.09;100105.31;126361;1099;104220;-80
2021/12/05 03:54:55;;;;;;;44.97;21.43;;;;;;;0.27;71.39;100104.32;126351;1099;104251;-81
2021/12/05 03:57:29;;;;;;;52.03;24.83;;;;;;;0.28;71.10;100107.78;126315;1099;104255;-81
2021/12/05 04:00:09;;;;;;;49.97;22.80;;;;;;;0.28;70.63;100106.13;126343;1099;104156;-81
2021/12/05 04:02:52;;;;;;;50.17;23.60;;;;;;;0.30;70.75;100099.38;126344;1099;104149;-81
2021/12/05 04:05:31;;;;;;;47.53;23.07;;;;;;;0.33;70.95;100090.95;126381;1099;104175;-81
2021/12/05 04:08:06;;;;;;;49.75;24.30;;;;;;;0.32;70.58;100089.16;126328;1099;104206;-81
2021/12/05 04:10:39;;;;;;;45.80;21.47;;;;;;;0.29;71.33;100091.52;126268;1099;104195;-81
2021/12/05 04:13:11;;;;;;;45.30;22.47;;;;;;;0.26;71.31;100094.77;126313;1099;104229;-81
2021/12/05 04:15:43;;;;;;;49.60;23.83;;;;;;;0.25;70.78;100092.08;126375;1099;104162;-81
2021/12/05 04:18:17;;;;;;;51.63;25.00;;;;;;;0.21;70.94;100085.83;126361;1099;104117;-81
2021/12/05 04:20:50;;;;;;;51.50;24.40;;;;;;;0.21;71.03;100085.83;126308;1099;104416;-81
2021/12/05 04:23:23;;;;;;;48.87;22.02;;;;;;;0.22;71.73;100086.70;126373;1099;104161;-81
2021/12/05 04:25:55;;;;;;;53.27;25.97;;;;;;;0.17;71.31;100083.80;126264;1099;102881;-81
2021/12/05 04:28:27;;;;;;;52.77;25.03;;;;;;;0.15;71.19;100085.39;126263;1099;104360;-81
2021/12/05 04:30:59;;;;;;;56.43;25.00;;;;;;;0.14;71.04;100081.92;125292;1099;104284;-81
2021/12/05 04:33:30;;;;;;;51.67;24.77;;;;;;;0.16;71.08;100076.88;125344;1099;104428;-81
2021/12/05 04:36:02;;;;;;;46.27;21.87;;;;;;;0.17;71.26;100088.97;125334;1099;104297;-81
2021/12/05 04:38:34;;;;;;;48.93;21.60;;;;;;;0.14;71.66;100084.50;125300;1099;104192;-81
2021/12/05 04:41:07;;;;;;;57.30;26.03;;;;;;;0.16;71.21;100082.92;125446;1099;104205;-81
2021/12/05 04:43:41;;;;;;;53.07;25.13;;;;;;;0.17;71.53;100091.55;126260;1099;104176;-81
2021/12/05 04:46:19;;;;;;;54.33;26.33;;;;;;;0.21;71.23;100092.68;126255;1099;104319;-81
2021/12/05 04:48:53;;;;;;;48.70;23.47;;;;;;;0.22;71.54;100095.37;125407;1099;104297;-81
2021/12/05 04:51:30;;;;;;;53.40;24.33;;;;;;;0.21;72.39;100090.09;125301;1099;104170;-82
2021/12/05 04:54:05;;;;;;;52.53;24.23;;;;;;;0.21;71.90;100090.98;125360;1099;104316;-81
2021/12/05 04:56:39;;;;;;;54.97;25.53;;;;;;;0.23;71.77;100091.09;125377;1102;104278;-81
2021/12/05 04:59:14;;;;;;;51.00;23.83;;;;;;;0.24;71.49;100091.20;125291;1102;104223;-81
2021/12/05 05:01:49;;;;;;;50.23;23.37;;;;;;;0.25;72.31;100090.42;126221;1099;104332;-81
2021/12/05 05:04:27;;;;;;;54.03;24.87;;;;;;;0.24;72.21;100088.62;126342;1097;104290;-80
2021/12/05 05:07:04;;;;;;;47.63;21.77;;;;;;;0.24;72.61;100080.87;126373;1099;102151;-80
2021/12/05 05:09:36;;;;;;;44.40;21.80;;;;;;;0.26;71.82;100083.56;126336;1099;104159;-82
2021/12/05 05:12:11;;;;;;;48.37;22.10;;;;;;;0.24;72.69;100091.20;126284;1099;104208;-81
2021/12/05 05:14:43;;;;;;;47.80;23.70;;;;;;;0.24;72.13;100090.31;126331;1099;104226;-81
2021/12/05 05:17:16;;;;;;;52.20;25.33;;;;;;;0.21;72.68;100088.41;126288;1099;104168;-82
2021/12/05 05:19:50;;;;;;;52.07;24.87;;;;;;;0.20;72.03;100078.86;126363;1098;104275;-81
2021/12/05 05:22:34;;;;;;;49.53;24.30;;;;;;;0.17;71.92;100071.82;126326;1099;104153;-81
2021/12/05 05:25:39;;;;;;;55.00;26.77;;;;;;;0.16;72.52;100064.86;126356;1099;104172;-81
2021/12/05 05:39:40;;;;;;;51.27;24.83;;;;;;;0.16;72.92;100057.11;126354;1099;104159;-81
2021/12/05 05:48:31;;;;;;;51.73;24.77;;;;;;;0.17;72.89;100052.84;125276;1099;104155;-80
2021/12/05 05:51:05;;;;;;;51.23;24.00;;;;;;;0.21;73.00;100060.02;126110;1099;104290;-80
2021/12/05 05:53:37;;;;;;;48.85;23.45;;;;;;;0.22;72.91;100066.98;126313;1099;104142;-80
2021/12/05 05:56:16;;;;;;;46.80;22.47;;;;;;;0.23;72.48;100067.87;126299;1098;104233;-80
2021/12/05 05:58:50;;;;;;;46.67;23.33;;;;;;;0.25;73.00;100069.78;126174;1099;104149;-80
2021/12/05 06:01:41;;;;;;;46.57;22.20;;;;;;;0.29;72.53;100064.02;126071;1099;104150;-81
2021/12/05 06:04:12;;;;;;;46.97;21.87;;;;;;;0.32;72.93;100060.77;126080;1099;104242;-81
2021/12/05 06:06:44;;;;;;;45.87;21.93;;;;;;;0.33;72.10;100060.87;126127;1099;104194;-81
2021/12/05 06:09:15;;;;;;;44.87;22.70;;;;;;;0.40;72.61;100071.63;126153;1099;104619;-81
2021/12/05 06:11:47;;;;;;;46.93;22.03;;;;;;;0.46;72.75;100064.30;126222;1099;104271;-81
2021/12/05 06:14:18;;;;;;;47.63;23.77;;;;;;;0.49;72.63;100069.67;126263;1099;105614;-81
2021/12/05 06:16:49;;;;;;;48.00;23.47;;;;;;;0.52;72.59;100067.30;126361;1099;104159;-81
2021/12/05 06:19:21;;;;;;;45.40;23.20;;;;;;;0.55;72.89;100067.52;126333;1099;104214;-81
2021/12/05 06:21:52;;;;;;;45.77;22.60;;;;;;;0.55;72.46;100064.94;126284;1099;104258;-81
2021/12/05 06:24:27;;;;;;;43.23;22.47;;;;;;;0.57;72.79;100065.92;126293;1097;104156;-80
2021/12/05 06:27:01;;;;;;;43.50;21.20;;;;;;;0.58;72.90;100062.56;126323;1099;104229;-80
2021/12/05 06:29:37;;;;;;;44.75;21.77;;;;;;;0.62;73.19;100059.38;126356;1098;104147;-79
2021/12/05 06:32:36;;;;;;;43.87;21.43;;;;;;;0.61;72.80;100055.03;126385;1099;104306;-81
2021/12/05 06:38:08;;;;;;;43.37;21.40;;;;;;;0.70;72.79;100054.73;126290;1099;104153;-81
2021/12/05 06:40:57;;;;;;;46.27;22.67;;;;;;;0.76;72.43;100068.06;126184;1099;104233;-82
2021/12/05 06:46:24;;;;;;;42.33;21.00;;;;;;;0.93;73.10;100081.23;126183;1099;104450;-81
2021/12/05 06:48:55;;;;;;;41.37;21.43;;;;;;;0.91;72.34;100088.00;126147;1099;104226;-82
2021/12/05 06:51:28;;;;;;;47.23;22.43;;;;;;;0.92;72.89;100090.69;126181;1099;104142;-81
2021/12/05 06:54:00;;;;;;;43.93;20.60;;;;;;;0.96;72.99;100087.49;126248;1099;104213;-81
2021/12/05 06:56:32;;;;;;;44.73;21.27;;;;;;;0.98;72.88;100082.43;126381;1097;104214;-80
2021/12/05 06:59:03;;;;;;;44.43;21.90;;;;;;;1.00;72.86;100088.62;126350;1099;104275;-80
2021/12/05 07:01:34;;;;;;;39.77;19.00;;;;;;;1.02;73.37;100080.16;126298;1099;104245;-80
2021/12/05 07:04:14;;;;;;;40.57;20.07;;;;;;;0.99;73.43;100085.11;125205;1099;104188;-81
2021/12/05 07:06:45;;;;;;;43.63;21.03;;;;;;;0.95;72.89;100084.80;125268;1099;104229;-81
2021/12/05 07:09:16;;;;;;;40.53;20.50;;;;;;;0.99;73.26;100089.40;125331;1099;104418;-81
2021/12/05 07:11:56;;;;;;;43.13;21.73;;;;;;;1.04;72.84;100086.34;125306;1099;102153;-81
2021/12/05 07:14:38;;;;;;;45.23;21.07;;;;;;;1.07;73.11;100089.09;125234;1099;104421;-80
2021/12/05 07:19:56;;;;;;;37.93;18.97;;;;;;;1.05;73.39;100098.45;125291;1099;104414;-81
2021/12/05 07:22:34;;;;;;;41.60;18.73;;;;;;;1.10;73.74;100083.25;125344;1099;104440;-80
2021/12/05 07:25:12;;;;;;;40.87;19.53;;;;;;;1.10;73.31;100098.76;125310;1099;104185;-80
2021/12/05 07:41:50;;;;;;;37.57;18.13;;;;;;;1.29;73.19;100103.45;126340;1099;104204;-80
2021/12/05 07:44:21;;;;;;;41.53;18.70;;;;;;;1.33;73.64;100096.81;126330;1099;105532;-80
2021/12/05 07:46:53;;;;;;;41.80;19.67;;;;;;;1.36;73.00;100094.44;126322;1099;104143;-81
2021/12/05 07:49:24;;;;;;;40.23;19.77;;;;;;;1.40;73.46;100097.32;126372;1099;104142;-81
2021/12/05 07:51:55;;;;;;;43.27;19.73;;;;;;;1.43;72.75;100082.01;126334;1099;104155;-80
2021/12/05 07:54:34;;;;;;;39.57;18.67;;;;;;;1.43;73.54;100083.68;126333;1099;104236;-80
2021/12/05 07:57:16;;;;;;;37.70;18.20;;;;;;;1.43;73.37;100083.68;126329;1099;104146;-81
2021/12/05 08:00:00;;;;;;;39.60;19.63;;;;;;;1.44;73.20;100106.16;126296;1099;104153;-81
2021/12/05 08:16:40;;;;;;;40.20;18.60;;;;;;;1.55;73.76;100101.70;126355;1099;104172;-82
2021/12/05 08:19:11;;;;;;;40.67;19.13;;;;;;;1.53;73.38;100103.30;125283;1099;104360;-81
2021/12/05 08:21:43;;;;;;;40.77;19.53;;;;;;;1.54;73.39;100105.06;125303;1099;104370;-81
2021/12/05 08:24:14;;;;;;;40.00;19.57;;;;;;;1.60;73.30;100110.64;125302;1099;104158;-81
2021/12/05 08:26:48;;;;;;;40.70;20.50;;;;;;;1.66;73.69;100110.16;125283;1102;104651;-80
2021/12/05 08:29:30;;;;;;;41.70;20.90;;;;;;;1.67;73.56;100110.25;125309;1102;104156;-80
2021/12/05 08:32:24;;;;;;;41.07;20.63;;;;;;;1.72;73.59;100110.55;125313;1102;104441;-81
2021/12/05 08:35:09;;;;;;;41.40;19.83;;;;;;;1.71;73.98;100114.81;125336;1102;104267;-81
2021/12/05 09:26:10;;;;;;;41.07;19.70;;;;;;;2.56;73.20;100050.20;125196;1102;104283;-81
2021/12/05 09:40:33;;;;;;;42.87;21.97;;;;;;;2.67;73.91;100032.72;125182;1102;101969;-81
2021/12/05 10:06:44;;;;;;;43.23;22.00;;;;;;;2.77;73.48;100022.08;124843;1105;104235;-81
2021/12/05 10:06:53;;;;;;;44.90;23.43;;;;;;;2.77;73.86;100023.78;125015;1105;102256;-79
2021/12/05 10:09:55;;;;;;;45.23;23.27;;;;;;;2.74;74.35;100029.67;125049;1106;104175;-81
2021/12/05 10:12:56;;;;;;;44.10;21.50;;;;;;;2.69;73.81;100031.09;125026;1105;104206;-81
2021/12/05 10:15:40;;;;;;;48.23;22.60;;;;;;;2.63;74.39;100039.42;124972;1105;119027;-81
2021/12/05 10:38:44;;;;;;;49.17;22.90;;;;;;;2.80;74.24;100045.58;124960;1102;104342;-82
2021/12/05 10:41:26;;;;;;;48.70;22.80;;;;;;;2.83;74.57;100039.70;124987;1102;104293;-81
2021/12/05 10:44:00;;;;;;;47.77;23.10;;;;;;;2.84;74.19;100031.13;124979;1102;104140;-81
2021/12/05 10:46:31;;;;;;;;;;;;;;;2.87;74.69;100031.31;124947;1102;104213;-82
2021/12/05 10:49:05;;;;;;;52.63;23.60;;;;;;;2.85;74.98;100023.44;124980;1102;104284;-81
2021/12/05 10:51:42;;;;;;;63.13;25.40;;;;;;;2.82;74.99;100031.04;125109;1102;104149;-82
2021/12/05 10:54:15;;;;;;;56.30;24.67;;;;;;;2.82;74.75;100028.45;125225;1102;104150;-81
2021/12/05 10:56:51;;;;;;;61.73;27.27;;;;;;;2.84;75.04;100018.17;125320;1102;104224;-81
2021/12/05 10:59:38;;;;;;;57.30;23.95;;;;;;;2.86;74.98;100025.20;125261;1102;104329;-80
2021/12/05 11:02:17;;;;;;;60.40;25.07;;;;;;;2.87;74.53;100019.23;125252;1102;104249;-80
2021/12/05 11:04:50;;;;;;;62.17;26.80;;;;;;;2.91;74.56;100001.27;125214;1102;104156;-80
2021/12/05 11:07:23;;;;;;;54.83;25.27;;;;;;;2.94;74.55;100001.45;125212;1102;104159;-80
2021/12/05 11:09:58;;;;;;;59.47;26.00;;;;;;;2.94;74.81;100004.05;125210;1102;104188;-80
2021/12/05 11:12:33;;;;;;;56.47;25.10;;;;;;;2.93;74.56;99997.06;125278;1102;104156;-81
2021/12/05 11:15:09;;;;;;;60.47;28.57;;;;;;;2.91;74.64;100009.93;125244;1102;104159;-81
2021/12/05 11:17:46;;;;;;;56.30;26.10;;;;;;;2.88;75.06;100017.52;125209;1102;104137;-80
2021/12/05 11:20:29;;;;;;;61.57;27.30;;;;;;;2.86;75.25;100019.14;126393;1099;104158;-81
2021/12/05 11:23:01;;;;;;;58.83;25.67;;;;;;;2.83;75.28;100026.73;126296;1099;104147;-81
2021/12/05 11:25:38;;;;;;;58.13;26.87;;;;;;;2.80;74.65;100017.08;126268;1099;104319;-81
2021/12/05 11:28:11;;;;;;;54.00;25.37;;;;;;;2.79;75.23;100020.49;126349;1099;104213;-81
2021/12/05 11:30:44;;;;;;;58.17;27.73;;;;;;;2.81;75.01;100015.40;126365;1099;104175;-81
2021/12/05 11:33:19;;;;;;;63.10;28.70;;;;;;;2.81;74.72;100015.40;126403;1099;104248;-81
2021/12/05 11:35:54;;;;;;;54.83;27.23;;;;;;;2.80;75.24;100005.83;126326;1099;104335;-81
2021/12/05 11:38:24;;;;;;;;;;;;;;;2.78;75.31;100008.33;126380;1097;104176;-81
2021/12/05 11:41:02;;;;;;;63.73;28.20;;;;;;;2.77;74.73;100005.65;126359;1099;104200;-81
2021/12/05 11:43:36;;;;;;;53.73;26.40;;;;;;;2.83;74.57;100008.59;126385;1099;104335;-81
2021/12/05 11:46:11;;;;;;;60.25;28.25;;;;;;;2.86;75.21;100003.59;126355;1099;104152;-81
2021/12/05 11:48:44;;;;;;;59.13;27.40;;;;;;;2.94;75.42;100001.45;126359;1099;104589;-82
2021/12/05 11:51:28;;;;;;;55.80;26.73;;;;;;;2.98;75.33;100003.43;126349;1099;104153;-81
2021/12/05 11:54:05;;;;;;;65.07;31.27;;;;;;;2.99;74.73;100010.37;126345;1099;104251;-81
2021/12/05 11:56:44;;;;;;;59.20;27.93;;;;;;;2.98;75.17;100006.91;126266;1099;105284;-81
2021/12/05 11:59:22;;;;;;;56.40;28.50;;;;;;;3.00;75.11;99997.51;126353;1099;104185;-81
2021/12/05 12:02:00;;;;;;;59.17;28.50;;;;;;;3.00;75.48;100006.99;126308;1099;104711;-81
2021/12/05 12:04:46;;;;;;;59.63;27.47;;;;;;;3.00;75.33;100000.09;126333;1099;104303;-81
2021/12/05 12:07:24;;;;;;;57.53;29.10;;;;;;;3.04;75.22;99993.41;126306;1099;104255;-82
2021/12/05 12:10:00;;;;;;;52.43;26.77;;;;;;;3.07;75.47;99988.41;126365;1099;104152;-81
2021/12/05 12:12:32;;;;;;;54.77;28.20;;;;;;;3.12;74.96;99991.27;126372;1099;104236;-80
2021/12/05 12:15:05;;;;;;;54.70;28.73;;;;;;;3.12;74.70;99986.08;126360;1099;104255;-81
2021/12/05 12:17:36;;;;;;;57.10;30.20;;;;;;;3.16;75.04;99985.42;126292;1099;104255;-82
2021/12/05 12:20:12;;;;;;;55.87;29.00;;;;;;;3.19;75.45;99981.30;126377;1099;104631;-81
2021/12/05 12:22:43;;;;;;;56.90;30.13;;;;;;;3.18;75.08;99976.02;126277;1099;104251;-81
2021/12/05 12:25:18;;;;;;;57.70;28.73;;;;;;;3.20;75.14;99972.72;126299;1099;104177;-81
2021/12/05 12:27:51;;;;;;;53.70;28.00;;;;;;;3.22;75.42;99978.87;126214;1099;104428;-81
2021/12/05 12:30:26;;;;;;;57.10;28.20;;;;;;;3.23;75.23;99974.61;126235;1099;104280;-80
2021/12/05 12:33:04;;;;;;;53.13;27.07;;;;;;;3.23;75.56;99975.49;126201;1099;104252;-81
2021/12/05 12:35:36;;;;;;;52.83;26.20;;;;;;;3.24;75.58;99974.70;126303;1099;104293;-81
2021/12/05 12:38:16;;;;;;;54.57;26.70;;;;;;;3.25;75.25;99970.39;126295;1098;104258;-80
2021/12/05 12:40:50;;;;;;;51.23;25.73;;;;;;;3.25;75.32;99967.80;126377;1099;104147;-80
2021/12/05 12:43:40;;;;;;;50.90;26.17;;;;;;;3.30;75.05;99960.28;126348;1098;104214;-82
2021/12/05 12:46:24;;;;;;;57.30;28.67;;;;;;;3.37;74.89;99954.64;126324;1098;104182;-82
2021/12/05 12:49:00;;;;;;;55.92;29.55;;;;;;;3.44;75.10;99961.93;126323;1099;108068;-81
2021/12/05 12:51:39;;;;;;;56.87;28.80;;;;;;;3.44;75.21;99956.74;126359;1099;104192;-82
2021/12/05 12:54:14;;;;;;;56.67;29.77;;;;;;;3.43;75.42;99954.98;126374;1098;104156;-83
2021/12/05 12:57:02;;;;;;;56.10;28.93;;;;;;;3.42;75.18;99961.84;126301;1099;104185;-82
2021/12/05 12:59:38;;;;;;;61.07;30.20;;;;;;;3.38;75.76;99969.37;126337;1098;104175;-81
2021/12/05 13:11:04;;;;;;;48.73;26.07;;;;;;;3.37;75.63;99955.52;126371;1099;104159;-81
2021/12/05 13:13:38;;;;;;;57.33;26.90;;;;;;;3.37;75.30;99952.05;126352;1099;104185;-82
2021/12/05 13:16:16;;;;;;;54.67;28.90;;;;;;;3.40;74.95;99947.91;126347;1099;104184;-82
2021/12/05 13:18:51;;;;;;;56.33;30.40;;;;;;;3.42;75.32;99946.28;126247;1099;104140;-82
2021/12/05 13:21:31;;;;;;;;;;;;;;;3.43;75.77;99944.61;126395;1099;104166;-82
2021/12/05 13:24:23;;;;;;;58.10;29.77;;;;;;;3.42;75.84;99950.59;126321;1099;104272;-81
2021/12/05 13:27:00;;;;;;;60.70;30.00;;;;;;;3.40;75.11;99942.72;126316;1099;104220;-81
2021/12/05 13:29:33;;;;;;;54.70;29.70;;;;;;;3.41;75.46;99934.14;126267;1099;104386;-80
2021/12/05 13:32:11;;;;;;;55.23;27.80;;;;;;;3.44;75.79;99935.11;126356;1099;104195;-81
2021/12/05 13:34:50;;;;;;;53.20;28.67;;;;;;;3.45;75.40;99934.31;126331;1099;104159;-81
2021/12/05 13:37:37;;;;;;;47.40;25.83;;;;;;;3.49;75.53;99938.84;126332;1099;104297;-82
2021/12/05 13:40:15;;;;;;;57.25;29.95;;;;;;;3.51;75.00;99943.31;126168;1099;104153;-81
2021/12/05 13:42:50;;;;;;;53.45;28.85;;;;;;;3.52;74.71;99951.98;126116;1099;104297;-82
2021/12/05 13:45:41;;;;;;;54.40;29.83;;;;;;;3.52;75.68;99959.77;126144;1099;104146;-82
2021/12/05 13:48:17;;;;;;;57.27;31.20;;;;;;;3.53;75.39;99959.84;126051;1099;104245;-81
2021/12/05 13:50:56;;;;;;;59.20;31.43;;;;;;;3.55;74.83;99960.84;126027;1099;104248;-82
2021/12/05 13:53:46;;;;;;;57.40;30.60;;;;;;;3.56;75.56;99957.42;126072;1099;104152;-81
2021/12/05 13:56:24;;;;;;;52.57;28.40;;;;;;;3.56;75.70;99962.61;126345;1099;104145;-82
2021/12/05 13:59:02;;;;;;;52.20;27.27;;;;;;;3.58;75.82;99962.70;126308;1099;104252;-81
2021/12/05 14:01:36;;;;;;;55.90;27.87;;;;;;;3.60;75.46;99969.77;126176;1099;104319;-81
2021/12/05 14:04:27;;;;;;;54.80;27.07;;;;;;;3.67;75.63;99972.70;126336;1099;104150;-81
2021/12/05 14:07:02;;;;;;;49.67;26.77;;;;;;;3.74;75.71;99973.12;126314;1098;104192;-81
2021/12/05 14:09:43;;;;;;;50.77;26.63;;;;;;;3.76;75.19;99968.01;126285;1099;104143;-82
2021/12/05 14:12:18;;;;;;;53.93;27.83;;;;;;;3.76;75.66;99962.82;126360;1099;104230;-82
2021/12/05 14:14:51;;;;;;;51.30;26.33;;;;;;;3.76;75.51;99962.82;126375;1099;104297;-81
2021/12/05 14:17:25;;;;;;;50.30;26.80;;;;;;;3.74;75.93;99965.33;126309;1099;104261;-81
2021/12/05 14:20:02;;;;;;;57.62;27.65;;;;;;;3.73;75.42;99955.75;126326;1099;104211;-82
2021/12/05 14:22:36;;;;;;;52.43;27.03;;;;;;;3.71;75.70;99961.66;125362;1099;104303;-81
2021/12/05 14:25:11;;;;;;;51.98;26.93;;;;;;;3.72;75.62;99971.23;126359;1099;104146;-81
2021/12/05 14:27:45;;;;;;;50.77;25.77;;;;;;;3.73;74.92;99976.51;126365;1099;104175;-82
2021/12/05 14:30:19;;;;;;;51.67;27.73;;;;;;;3.77;75.01;99980.16;126229;1099;104152;-81
2021/12/05 14:32:58;;;;;;;52.93;28.53;;;;;;;3.82;76.15;99973.53;126275;1099;104274;-82
2021/12/05 14:35:32;;;;;;;54.73;29.03;;;;;;;3.87;76.08;99981.57;126286;1099;104172;-82
2021/12/05 14:38:03;;;;;;;51.20;27.07;;;;;;;3.87;75.42;99995.43;126369;1099;104268;-82
2021/12/05 14:40:37;;;;;;;56.67;28.83;;;;;;;3.88;75.73;99994.63;126270;1099;104134;-81
2021/12/05 14:43:12;;;;;;;53.28;27.98;;;;;;;3.89;75.89;99996.39;126305;1099;104159;-81
2021/12/05 14:45:51;;;;;;;58.20;30.57;;;;;;;3.89;75.99;99991.20;126237;1099;104287;-81
2021/12/05 14:48:22;;;;;;;52.90;27.43;;;;;;;3.86;75.29;100001.42;126359;1099;104155;-81
2021/12/05 14:50:54;;;;;;;55.97;28.07;;;;;;;3.86;75.54;99995.34;126291;1099;104274;-81
2021/12/05 14:53:26;;;;;;;52.53;27.20;;;;;;;3.86;75.95;100001.42;126379;1099;104280;-81
2021/12/05 14:55:58;;;;;;;51.13;26.77;;;;;;;3.88;75.60;99998.91;126239;1099;104353;-81
2021/12/05 14:58:30;;;;;;;51.83;27.37;;;;;;;3.92;75.66;99986.18;126351;1099;104057;-82
2021/12/05 15:01:02;;;;;;;56.70;29.43;;;;;;;3.95;76.12;99991.53;126305;1099;104210;-81
2021/12/05 15:03:34;;;;;;;58.70;30.13;;;;;;;4.01;75.84;99995.30;126357;1099;104185;-81
2021/12/05 15:06:07;;;;;;;59.93;29.67;;;;;;;4.02;75.50;99997.98;126381;1099;104608;-81
2021/12/05 15:08:39;;;;;;;55.90;30.55;;;;;;;4.05;75.71;99997.23;126325;1099;104146;-82
2021/12/05 15:11:13;;;;;;;59.57;30.40;;;;;;;4.04;75.65;100000.66;126320;1099;104165;-81
2021/12/05 15:13:44;;;;;;;54.43;29.13;;;;;;;4.03;75.85;99988.47;126343;1099;104198;-81
2021/12/05 15:16:16;;;;;;;55.13;29.00;;;;;;;4.02;76.10;99997.98;126338;1099;104281;-81
2021/12/05 15:18:47;;;;;;;54.13;28.33;;;;;;;4.02;75.83;99999.66;126392;1099;104156;-82
2021/12/05 15:21:18;;;;;;;52.77;29.37;;;;;;;4.01;75.86;100000.48;126227;1099;104194;-82
2021/12/05 15:23:50;;;;;;;58.77;29.47;;;;;;;4.02;75.88;100000.57;126318;1099;104178;-82
2021/12/05 15:26:21;;;;;;;54.43;28.40;;;;;;;4.05;76.23;99999.82;126312;1099;104188;-82
2021/12/05 15:29:03;;;;;;;54.77;29.77;;;;;;;4.08;76.33;100002.58;126350;1099;104236;-81
2021/12/05 15:31:40;;;;;;;60.30;30.43;;;;;;;4.10;76.32;100001.87;126280;1099;104152;-82
2021/12/05 15:34:29;;;;;;;57.43;30.00;;;;;;;4.09;76.37;99994.88;126360;1099;104249;-81
2021/12/05 15:37:07;;;;;;;59.90;30.57;;;;;;;4.08;75.72;100007.78;126274;1099;104175;-82
2021/12/05 15:39:42;;;;;;;62.03;31.90;;;;;;;4.06;76.38;100006.81;126381;1099;104201;-82
2021/12/05 15:42:21;;;;;;;54.03;29.00;;;;;;;4.05;75.73;100007.61;126304;1099;104143;-82
2021/12/05 15:44:55;;;;;;;60.95;31.50;;;;;;;4.03;75.84;99999.73;126363;1099;104153;-82
2021/12/05 15:47:29;;;;;;;64.32;31.15;;;;;;;4.01;75.73;99993.58;126323;1099;104162;-82
2021/12/05 15:50:10;;;;;;;57.48;29.55;;;;;;;4.04;76.09;99990.27;126374;1099;104201;-82
2021/12/05 15:52:46;;;;;;;61.57;31.30;;;;;;;4.03;76.87;99981.56;126251;1099;110162;-82
2021/12/05 15:55:20;;;;;;;57.00;30.07;;;;;;;4.01;76.46;99980.59;126382;1099;104252;-81